πŸ“Š DonnΓ©es MΓ©tΓ©o - Bordeaux

Total mesures

14,347

TempΓ©rature moyenne

18.8Β°C

Temp. Min/Max

2.9Β° / 42.4Β°

HumiditΓ© moyenne

64.9%

Pression moyenne

1014.7 hPa
enregistrements
ID Date/Heure Temp (Β°C) HumiditΓ© (%) Pression (hPa) Tendance LuminositΓ© (lux) Situation
13347 21/08/2026 12:15 24.1 48.0 1,013.5 β†’ Stable 98,328 confortablement-chaud
13346 21/08/2026 12:00 23.4 53.0 1,013.5 β†’ Stable 83,520 confortablement-chaud (approx.)
13345 21/08/2026 11:45 22.8 55.0 1,013.3 β†’ Stable 80,652 frais-stable
13344 21/08/2026 11:30 21.9 73.0 1,013.3 β†’ Stable 79,356 conditions-neutrales-ou-non-definies
13343 21/08/2026 11:15 20.4 78.0 1,013.3 β†’ Stable 80,460 conditions-neutrales-ou-non-definies
13342 21/08/2026 10:45 21.5 66.0 1,013.5 β†’ Stable 65,928 frais-stable
13341 21/08/2026 10:30 20.5 78.0 1,013.5 β†’ Stable 15,744 pluvieux-gris (approx.)
13340 21/08/2026 10:15 20.3 79.0 1,013.5 β†’ Stable 13,056 pluvieux-gris (approx.)
13339 21/08/2026 09:45 20.9 72.0 1,013.1 β†’ Stable 45,372 pluvieux-gris (approx.)
13338 21/08/2026 09:30 21.0 70.0 1,013.1 β†’ Stable 59,532 pluvieux-gris (approx.)
13337 21/08/2026 09:15 20.6 75.0 1,013.1 β†’ Stable 58,428 pluvieux-gris (approx.)
13336 21/08/2026 08:45 19.4 84.0 1,012.6 β†’ Stable 41,940 pluvieux-gris (approx.)
13335 21/08/2026 08:30 18.9 84.0 1,012.6 β†’ Stable 21,576 pluvieux-gris (approx.)
13334 21/08/2026 08:15 19.1 86.0 1,012.6 β†’ Stable 18,516 pluvieux-gris (approx.)
13333 21/08/2026 07:45 19.8 82.0 1,012.3 β†’ Stable 27,504 pluvieux-gris (approx.)
13332 21/08/2026 07:15 19.0 90.0 1,012.3 β†’ Stable 23,892 pluvieux-gris (approx.)
13331 21/08/2026 06:45 18.7 91.0 1,011.7 β†’ Stable 5,832 pluvieux-gris (approx.)
13330 21/08/2026 06:30 18.5 91.0 1,011.7 β†’ Stable 8,052 pluvieux-gris (approx.)
13329 21/08/2026 06:15 18.4 91.0 1,011.7 β†’ Stable 5,376 pluvieux-gris (approx.)
13328 21/08/2026 05:45 18.3 91.0 1,011.5 β†’ Stable 828 pluvieux-gris (approx.)
13327 21/08/2026 05:30 18.3 92.0 1,011.5 β†’ Stable 96 pluvieux-gris (approx.)
13326 21/08/2026 05:15 18.4 91.0 1,011.5 β†’ Stable 0 pluvieux-gris (approx.)
13325 21/08/2026 04:45 18.5 88.0 1,011.3 β†’ Stable 0 pluvieux-gris (approx.)
13324 21/08/2026 04:30 18.4 90.0 1,011.3 β†’ Stable 0 pluvieux-gris (approx.)
13323 21/08/2026 04:15 18.5 90.0 1,011.3 β†’ Stable 0 pluvieux-gris (approx.)
13322 21/08/2026 03:45 18.3 91.0 1,011.3 β†’ Stable 0 pluvieux-gris (approx.)
13321 21/08/2026 03:30 18.6 91.0 1,011.3 β†’ Stable 0 pluvieux-gris (approx.)
13320 21/08/2026 03:15 18.5 92.0 1,011.3 β†’ Stable 0 pluvieux-gris (approx.)
13319 21/08/2026 03:00 18.5 91.0 1,011.3 β†’ Stable 0 pluvieux-gris (approx.)
13318 21/08/2026 02:45 18.6 90.0 1,011.5 β†’ Stable 0 pluvieux-gris (approx.)
13317 21/08/2026 02:30 18.5 90.0 1,011.5 β†’ Stable 0 pluvieux-gris (approx.)
13316 21/08/2026 02:15 18.5 89.0 1,011.5 β†’ Stable 0 pluvieux-gris (approx.)
13315 21/08/2026 01:45 18.9 85.0 1,011.6 β†’ Stable 0 pluvieux-gris (approx.)
13314 21/08/2026 01:30 18.8 87.0 1,011.6 β†’ Stable 0 pluvieux-gris (approx.)
13313 21/08/2026 01:15 18.9 86.0 1,011.7 β†’ Stable 0 pluvieux-gris (approx.)
13312 21/08/2026 00:45 18.7 86.0 1,012.1 β†’ Stable 0 pluvieux-gris (approx.)
13311 21/08/2026 00:30 18.8 89.0 1,012.1 β†’ Stable 0 pluvieux-gris (approx.)
13310 21/08/2026 00:15 18.8 89.0 1,012.1 β†’ Stable 0 pluvieux-gris (approx.)
13309 20/08/2026 23:45 19.1 87.0 1,012.3 β†’ Stable 0 pluvieux-gris (approx.)
13308 20/08/2026 23:30 19.1 86.0 1,012.3 β†’ Stable 0 pluvieux-gris (approx.)
13307 20/08/2026 23:15 19.1 85.0 1,012.3 β†’ Stable 0 pluvieux-gris (approx.)
13306 20/08/2026 23:00 19.1 85.0 1,012.0 β†’ Stable 0 pluvieux-gris (approx.)
13305 20/08/2026 22:45 19.1 85.0 1,012.1 β†’ Stable 0 pluvieux-gris (approx.)
13304 20/08/2026 22:30 19.1 88.0 1,012.1 β†’ Stable 0 pluvieux-gris (approx.)
13303 20/08/2026 22:15 19.4 85.0 1,012.1 β†’ Stable 0 pluvieux-gris (approx.)
13302 20/08/2026 21:45 20.3 73.0 1,011.8 β†’ Stable 0 pluvieux-gris (approx.)
13301 20/08/2026 21:30 20.7 70.0 1,011.8 β†’ Stable 0 pluvieux-gris (approx.)
13300 20/08/2026 21:15 20.7 69.0 1,011.8 β†’ Stable 0 frais-stable
13299 20/08/2026 21:00 20.8 68.0 1,011.8 β†’ Stable 0 frais-stable
13298 20/08/2026 20:45 20.8 68.0 1,012.1 β†’ Stable 0 frais-stable
13297 20/08/2026 20:30 21.2 63.0 1,012.1 β†’ Stable 0 frais-stable
13296 20/08/2026 20:15 21.3 62.0 1,012.1 β†’ Stable 0 frais-stable
13295 20/08/2026 20:00 21.4 61.0 1,012.1 β†’ Stable 0 frais-stable
13294 20/08/2026 19:45 21.4 60.0 1,011.2 β†’ Stable 0 frais-stable
13293 20/08/2026 19:15 21.9 57.0 1,011.2 β†’ Stable 0 frais-stable
13292 20/08/2026 19:00 22.0 57.0 1,011.9 β†’ Stable 0 frais-stable
13291 20/08/2026 18:45 22.1 57.0 1,011.6 β†’ Stable 828 frais-stable
13290 20/08/2026 18:30 22.4 54.0 1,011.6 β†’ Stable 1,764 frais-stable
13289 20/08/2026 18:15 22.6 55.0 1,011.6 β†’ Stable 3,144 frais-stable
13288 20/08/2026 17:45 23.0 57.0 1,011.1 β†’ Stable 5,736 frais-stable
13287 20/08/2026 17:30 23.6 54.0 1,011.1 β†’ Stable 4,632 conditions-neutrales-ou-non-definies
13286 20/08/2026 17:15 23.9 53.0 1,011.1 β†’ Stable 5,184 conditions-neutrales-ou-non-definies
13285 20/08/2026 16:45 24.4 51.0 1,010.8 β†’ Stable 15,096 confortablement-chaud (approx.)
13284 20/08/2026 16:15 25.3 45.0 1,010.9 β†’ Stable 24,816 confortablement-chaud (approx.)
13283 20/08/2026 15:45 25.5 43.0 1,011.1 β†’ Stable 44,076 confortablement-chaud (approx.)
13282 20/08/2026 15:30 24.4 49.0 1,011.1 β†’ Stable 37,404 confortablement-chaud (approx.)
13281 20/08/2026 15:15 24.9 45.0 1,011.1 β†’ Stable 39,540 confortablement-chaud (approx.)
13280 20/08/2026 14:45 25.4 43.0 1,011.5 β†’ Stable 21,576 confortablement-chaud (approx.)
13279 20/08/2026 14:30 25.4 44.0 1,011.5 β†’ Stable 40,464 confortablement-chaud (approx.)
13278 20/08/2026 14:15 25.5 44.0 1,011.5 β†’ Stable 40,836 confortablement-chaud (approx.)
13277 20/08/2026 13:45 26.0 44.0 1,011.6 β†’ Stable 48,240 confortablement-chaud (approx.)
13276 20/08/2026 13:30 26.4 43.0 1,011.6 β†’ Stable 67,320 confortablement-chaud (approx.)
13275 20/08/2026 13:15 26.0 45.0 1,011.6 β†’ Stable 71,208 confortablement-chaud
13274 20/08/2026 12:45 25.9 46.0 1,011.9 β†’ Stable 62,688 confortablement-chaud (approx.)
13273 20/08/2026 12:15 24.7 50.0 1,011.9 β†’ Stable 69,996 confortablement-chaud (approx.)
13272 20/08/2026 11:45 24.5 53.0 1,012.0 β†’ Stable 47,040 confortablement-chaud (approx.)
13271 20/08/2026 11:15 24.8 53.0 1,012.5 β†’ Stable 42,228 confortablement-chaud (approx.)
13270 20/08/2026 10:45 24.3 56.0 1,012.6 β†’ Stable 67,680 confortablement-chaud (approx.)
13269 20/08/2026 10:15 23.7 57.0 1,012.6 β†’ Stable 23,520 conditions-neutrales-ou-non-definies
13268 20/08/2026 10:00 23.5 59.0 1,012.6 β†’ Stable 53,976 conditions-neutrales-ou-non-definies
13267 20/08/2026 09:45 23.2 61.0 1,012.3 β†’ Stable 60,372 conditions-neutrales-ou-non-definies
13266 20/08/2026 09:15 22.2 65.0 1,012.3 β†’ Stable 41,580 frais-stable
13265 20/08/2026 08:45 22.0 67.0 1,012.1 β†’ Stable 39,072 frais-stable
13264 20/08/2026 08:30 21.2 71.0 1,012.1 β†’ Stable 25,920 pluvieux-gris (approx.)
13263 20/08/2026 08:15 21.2 71.0 1,012.1 β†’ Stable 22,968 pluvieux-gris (approx.)
13262 20/08/2026 07:45 21.0 73.0 1,012.5 β†’ Stable 19,080 pluvieux-gris (approx.)
13261 20/08/2026 07:15 20.4 78.0 1,012.5 β†’ Stable 12,228 pluvieux-gris (approx.)
13260 20/08/2026 07:00 20.2 79.0 1,012.5 β†’ Stable 9,996 pluvieux-gris (approx.)
13259 20/08/2026 06:45 20.2 80.0 1,012.3 β†’ Stable 7,776 pluvieux-gris (approx.)
13258 20/08/2026 06:30 20.0 80.0 1,012.3 β†’ Stable 5,832 pluvieux-gris (approx.)
13257 20/08/2026 06:15 20.0 80.0 1,012.3 β†’ Stable 3,984 pluvieux-gris (approx.)
13256 20/08/2026 05:45 19.7 82.0 1,011.6 β†’ Stable 1,668 pluvieux-gris (approx.)
13255 20/08/2026 05:30 19.6 83.0 1,011.6 β†’ Stable 180 pluvieux-gris (approx.)
13254 20/08/2026 05:15 19.6 83.0 1,011.6 β†’ Stable 0 pluvieux-gris (approx.)
13253 20/08/2026 05:00 19.7 83.0 1,011.6 β†’ Stable 0 pluvieux-gris (approx.)
13252 20/08/2026 04:45 19.6 84.0 1,011.5 β†’ Stable 0 pluvieux-gris (approx.)
13251 20/08/2026 04:15 19.5 87.0 1,011.5 β†’ Stable 0 pluvieux-gris (approx.)
13250 20/08/2026 04:00 19.5 88.0 1,011.5 β†’ Stable 0 pluvieux-gris (approx.)
13249 20/08/2026 03:45 19.5 88.0 1,011.5 β†’ Stable 0 pluvieux-gris (approx.)
13248 20/08/2026 03:30 20.1 89.0 1,011.5 β†’ Stable 0 pluvieux-gris (approx.)